sensor_id;sensor_type;location;lat;lon;timestamp;P1;durP1;ratioP1;P2;durP2;ratioP2
76667;SDS011;65585;51.166;16.922;2023-10-19T00:02:08;23.08;;;14.18;;
76667;SDS011;65585;51.166;16.922;2023-10-19T00:04:36;29.50;;;15.60;;
76667;SDS011;65585;51.166;16.922;2023-10-19T00:07:02;28.33;;;15.15;;
76667;SDS011;65585;51.166;16.922;2023-10-19T00:09:32;29.63;;;15.02;;
76667;SDS011;65585;51.166;16.922;2023-10-19T00:12:06;33.92;;;16.25;;
76667;SDS011;65585;51.166;16.922;2023-10-19T00:14:34;31.92;;;16.35;;
76667;SDS011;65585;51.166;16.922;2023-10-19T00:17:01;24.60;;;14.40;;
76667;SDS011;65585;51.166;16.922;2023-10-19T00:19:34;25.88;;;14.63;;
76667;SDS011;65585;51.166;16.922;2023-10-19T00:22:05;24.95;;;14.48;;
76667;SDS011;65585;51.166;16.922;2023-10-19T00:24:34;23.98;;;14.73;;
76667;SDS011;65585;51.166;16.922;2023-10-19T00:27:01;29.77;;;13.25;;
76667;SDS011;65585;51.166;16.922;2023-10-19T00:29:36;30.08;;;14.77;;
76667;SDS011;65585;51.166;16.922;2023-10-19T00:32:13;30.02;;;15.25;;
76667;SDS011;65585;51.166;16.922;2023-10-19T00:34:40;26.92;;;13.80;;
76667;SDS011;65585;51.166;16.922;2023-10-19T00:37:07;23.27;;;13.38;;
76667;SDS011;65585;51.166;16.922;2023-10-19T00:39:36;28.13;;;13.57;;
76667;SDS011;65585;51.166;16.922;2023-10-19T00:42:12;25.25;;;14.32;;
76667;SDS011;65585;51.166;16.922;2023-10-19T00:44:43;23.75;;;14.77;;
76667;SDS011;65585;51.166;16.922;2023-10-19T00:47:16;23.02;;;14.38;;
76667;SDS011;65585;51.166;16.922;2023-10-19T00:49:45;24.23;;;13.70;;
76667;SDS011;65585;51.166;16.922;2023-10-19T00:54:45;22.95;;;13.52;;
76667;SDS011;65585;51.166;16.922;2023-10-19T00:57:12;22.52;;;12.95;;
76667;SDS011;65585;51.166;16.922;2023-10-19T00:59:39;27.73;;;14.70;;
76667;SDS011;65585;51.166;16.922;2023-10-19T01:02:13;24.52;;;13.35;;
76667;SDS011;65585;51.166;16.922;2023-10-19T01:04:43;25.63;;;14.32;;
76667;SDS011;65585;51.166;16.922;2023-10-19T01:07:10;27.20;;;13.90;;
76667;SDS011;65585;51.166;16.922;2023-10-19T01:09:52;28.67;;;14.30;;
76667;SDS011;65585;51.166;16.922;2023-10-19T01:12:25;26.35;;;13.50;;
76667;SDS011;65585;51.166;16.922;2023-10-19T01:15:05;22.10;;;12.88;;
76667;SDS011;65585;51.166;16.922;2023-10-19T01:17:45;23.40;;;13.18;;
76667;SDS011;65585;51.166;16.922;2023-10-19T01:20:11;24.23;;;13.57;;
76667;SDS011;65585;51.166;16.922;2023-10-19T01:22:48;27.13;;;13.57;;
76667;SDS011;65585;51.166;16.922;2023-10-19T01:28:28;23.63;;;13.15;;
76667;SDS011;65585;51.166;16.922;2023-10-19T01:31:11;26.08;;;13.30;;
76667;SDS011;65585;51.166;16.922;2023-10-19T01:33:41;24.00;;;12.65;;
76667;SDS011;65585;51.166;16.922;2023-10-19T01:36:08;24.58;;;14.05;;
76667;SDS011;65585;51.166;16.922;2023-10-19T01:38:42;21.98;;;13.50;;
76667;SDS011;65585;51.166;16.922;2023-10-19T01:41:08;24.50;;;13.45;;
76667;SDS011;65585;51.166;16.922;2023-10-19T01:43:41;22.55;;;13.00;;
76667;SDS011;65585;51.166;16.922;2023-10-19T01:46:12;23.40;;;13.75;;
76667;SDS011;65585;51.166;16.922;2023-10-19T01:48:48;26.05;;;14.00;;
76667;SDS011;65585;51.166;16.922;2023-10-19T01:51:19;26.05;;;14.45;;
76667;SDS011;65585;51.166;16.922;2023-10-19T01:53:46;25.58;;;13.88;;
76667;SDS011;65585;51.166;16.922;2023-10-19T01:56:13;26.95;;;14.50;;
76667;SDS011;65585;51.166;16.922;2023-10-19T01:58:41;25.13;;;13.23;;
76667;SDS011;65585;51.166;16.922;2023-10-19T02:01:07;25.60;;;13.13;;
76667;SDS011;65585;51.166;16.922;2023-10-19T02:03:38;29.17;;;15.25;;
76667;SDS011;65585;51.166;16.922;2023-10-19T02:06:08;23.50;;;14.60;;
76667;SDS011;65585;51.166;16.922;2023-10-19T02:08:55;28.55;;;15.05;;
76667;SDS011;65585;51.166;16.922;2023-10-19T02:11:26;26.45;;;14.00;;
76667;SDS011;65585;51.166;16.922;2023-10-19T02:13:55;32.47;;;15.13;;
76667;SDS011;65585;51.166;16.922;2023-10-19T02:16:29;27.95;;;15.13;;
76667;SDS011;65585;51.166;16.922;2023-10-19T02:18:55;29.55;;;14.60;;
76667;SDS011;65585;51.166;16.922;2023-10-19T02:21:21;26.67;;;14.75;;
76667;SDS011;65585;51.166;16.922;2023-10-19T02:23:48;30.40;;;14.70;;
76667;SDS011;65585;51.166;16.922;2023-10-19T02:26:19;29.73;;;13.73;;
76667;SDS011;65585;51.166;16.922;2023-10-19T02:28:46;24.63;;;13.48;;
76667;SDS011;65585;51.166;16.922;2023-10-19T02:31:15;25.40;;;14.52;;
76667;SDS011;65585;51.166;16.922;2023-10-19T02:33:47;26.25;;;14.57;;
76667;SDS011;65585;51.166;16.922;2023-10-19T02:36:17;27.05;;;15.20;;
76667;SDS011;65585;51.166;16.922;2023-10-19T02:38:45;25.58;;;13.93;;
76667;SDS011;65585;51.166;16.922;2023-10-19T02:41:18;28.48;;;14.73;;
76667;SDS011;65585;51.166;16.922;2023-10-19T02:43:47;25.80;;;14.93;;
76667;SDS011;65585;51.166;16.922;2023-10-19T02:46:17;24.60;;;14.35;;
76667;SDS011;65585;51.166;16.922;2023-10-19T02:48:43;27.88;;;14.85;;
76667;SDS011;65585;51.166;16.922;2023-10-19T02:51:10;25.70;;;14.57;;
76667;SDS011;65585;51.166;16.922;2023-10-19T02:53:38;26.92;;;14.07;;
76667;SDS011;65585;51.166;16.922;2023-10-19T02:58:45;25.85;;;13.95;;
76667;SDS011;65585;51.166;16.922;2023-10-19T03:01:17;26.05;;;13.52;;
76667;SDS011;65585;51.166;16.922;2023-10-19T03:03:50;22.27;;;12.73;;
76667;SDS011;65585;51.166;16.922;2023-10-19T03:06:20;23.65;;;13.90;;
76667;SDS011;65585;51.166;16.922;2023-10-19T03:08:47;24.17;;;12.90;;
76667;SDS011;65585;51.166;16.922;2023-10-19T03:11:18;23.23;;;14.05;;
76667;SDS011;65585;51.166;16.922;2023-10-19T03:13:45;25.35;;;13.60;;
76667;SDS011;65585;51.166;16.922;2023-10-19T03:16:16;25.25;;;13.77;;
76667;SDS011;65585;51.166;16.922;2023-10-19T03:18:43;29.23;;;14.27;;
76667;SDS011;65585;51.166;16.922;2023-10-19T03:21:09;26.20;;;14.73;;
76667;SDS011;65585;51.166;16.922;2023-10-19T03:23:37;28.77;;;14.40;;
76667;SDS011;65585;51.166;16.922;2023-10-19T03:26:03;22.65;;;14.00;;
76667;SDS011;65585;51.166;16.922;2023-10-19T03:28:53;27.45;;;14.32;;
76667;SDS011;65585;51.166;16.922;2023-10-19T03:31:23;25.60;;;15.48;;
76667;SDS011;65585;51.166;16.922;2023-10-19T03:33:52;27.55;;;15.63;;
76667;SDS011;65585;51.166;16.922;2023-10-19T03:36:25;25.83;;;14.70;;
76667;SDS011;65585;51.166;16.922;2023-10-19T03:38:52;27.48;;;14.30;;
76667;SDS011;65585;51.166;16.922;2023-10-19T03:41:19;24.42;;;15.27;;
76667;SDS011;65585;51.166;16.922;2023-10-19T03:43:53;26.95;;;14.63;;
76667;SDS011;65585;51.166;16.922;2023-10-19T03:46:20;28.10;;;15.25;;
76667;SDS011;65585;51.166;16.922;2023-10-19T03:49:00;31.27;;;15.60;;
76667;SDS011;65585;51.166;16.922;2023-10-19T03:51:39;32.22;;;16.80;;
76667;SDS011;65585;51.166;16.922;2023-10-19T03:54:24;25.70;;;14.70;;
76667;SDS011;65585;51.166;16.922;2023-10-19T03:56:51;26.88;;;14.95;;
76667;SDS011;65585;51.166;16.922;2023-10-19T03:59:18;29.42;;;15.80;;
76667;SDS011;65585;51.166;16.922;2023-10-19T04:01:45;29.02;;;14.75;;
76667;SDS011;65585;51.166;16.922;2023-10-19T04:04:11;28.38;;;16.20;;
76667;SDS011;65585;51.166;16.922;2023-10-19T04:06:39;31.08;;;16.02;;
76667;SDS011;65585;51.166;16.922;2023-10-19T04:09:06;33.03;;;16.98;;
76667;SDS011;65585;51.166;16.922;2023-10-19T04:11:32;26.02;;;15.77;;
76667;SDS011;65585;51.166;16.922;2023-10-19T04:13:59;30.58;;;16.40;;
76667;SDS011;65585;51.166;16.922;2023-10-19T04:16:29;33.60;;;15.85;;
76667;SDS011;65585;51.166;16.922;2023-10-19T04:18:57;30.90;;;16.55;;
76667;SDS011;65585;51.166;16.922;2023-10-19T04:21:23;31.25;;;17.42;;
76667;SDS011;65585;51.166;16.922;2023-10-19T04:23:50;31.05;;;16.52;;
76667;SDS011;65585;51.166;16.922;2023-10-19T04:26:16;26.73;;;16.02;;
76667;SDS011;65585;51.166;16.922;2023-10-19T04:28:44;27.63;;;16.95;;
76667;SDS011;65585;51.166;16.922;2023-10-19T04:31:11;34.97;;;16.40;;
76667;SDS011;65585;51.166;16.922;2023-10-19T04:33:40;32.03;;;17.95;;
76667;SDS011;65585;51.166;16.922;2023-10-19T04:36:08;29.27;;;16.73;;
76667;SDS011;65585;51.166;16.922;2023-10-19T04:38:37;32.65;;;16.30;;
76667;SDS011;65585;51.166;16.922;2023-10-19T04:41:06;31.42;;;16.50;;
76667;SDS011;65585;51.166;16.922;2023-10-19T04:43:36;27.20;;;15.80;;
76667;SDS011;65585;51.166;16.922;2023-10-19T04:46:07;34.42;;;18.50;;
76667;SDS011;65585;51.166;16.922;2023-10-19T04:48:37;34.17;;;17.98;;
76667;SDS011;65585;51.166;16.922;2023-10-19T04:51:06;34.47;;;17.88;;
76667;SDS011;65585;51.166;16.922;2023-10-19T04:53:34;32.20;;;17.48;;
76667;SDS011;65585;51.166;16.922;2023-10-19T04:56:02;36.15;;;18.45;;
76667;SDS011;65585;51.166;16.922;2023-10-19T04:58:29;34.85;;;17.83;;
76667;SDS011;65585;51.166;16.922;2023-10-19T05:00:55;37.38;;;17.83;;
76667;SDS011;65585;51.166;16.922;2023-10-19T05:03:24;29.92;;;17.98;;
76667;SDS011;65585;51.166;16.922;2023-10-19T05:05:51;31.42;;;18.27;;
76667;SDS011;65585;51.166;16.922;2023-10-19T05:08:17;35.65;;;19.67;;
76667;SDS011;65585;51.166;16.922;2023-10-19T05:10:43;40.13;;;19.38;;
76667;SDS011;65585;51.166;16.922;2023-10-19T05:13:09;32.80;;;19.35;;
76667;SDS011;65585;51.166;16.922;2023-10-19T05:15:35;42.90;;;20.48;;
76667;SDS011;65585;51.166;16.922;2023-10-19T05:18:01;35.03;;;19.15;;
76667;SDS011;65585;51.166;16.922;2023-10-19T05:20:27;40.50;;;21.67;;
76667;SDS011;65585;51.166;16.922;2023-10-19T05:22:53;34.97;;;19.98;;
76667;SDS011;65585;51.166;16.922;2023-10-19T05:25:20;45.70;;;20.85;;
76667;SDS011;65585;51.166;16.922;2023-10-19T05:27:46;38.47;;;19.83;;
76667;SDS011;65585;51.166;16.922;2023-10-19T05:30:11;35.33;;;19.55;;
76667;SDS011;65585;51.166;16.922;2023-10-19T05:32:38;42.05;;;19.90;;
76667;SDS011;65585;51.166;16.922;2023-10-19T05:35:04;35.90;;;20.23;;
76667;SDS011;65585;51.166;16.922;2023-10-19T05:37:31;37.17;;;19.98;;
76667;SDS011;65585;51.166;16.922;2023-10-19T05:39:57;40.22;;;21.25;;
76667;SDS011;65585;51.166;16.922;2023-10-19T05:42:24;33.90;;;19.42;;
76667;SDS011;65585;51.166;16.922;2023-10-19T05:44:50;32.85;;;19.10;;
76667;SDS011;65585;51.166;16.922;2023-10-19T05:47:17;36.08;;;19.42;;
76667;SDS011;65585;51.166;16.922;2023-10-19T05:49:43;35.25;;;20.25;;
76667;SDS011;65585;51.166;16.922;2023-10-19T05:52:09;38.00;;;20.15;;
76667;SDS011;65585;51.166;16.922;2023-10-19T05:54:35;40.58;;;19.38;;
76667;SDS011;65585;51.166;16.922;2023-10-19T05:57:03;36.67;;;19.13;;
76667;SDS011;65585;51.166;16.922;2023-10-19T05:59:33;33.67;;;19.30;;
76667;SDS011;65585;51.166;16.922;2023-10-19T06:01:59;38.30;;;20.92;;
76667;SDS011;65585;51.166;16.922;2023-10-19T06:04:25;30.73;;;18.38;;
76667;SDS011;65585;51.166;16.922;2023-10-19T06:06:51;35.83;;;20.15;;
76667;SDS011;65585;51.166;16.922;2023-10-19T06:09:17;38.40;;;19.65;;
76667;SDS011;65585;51.166;16.922;2023-10-19T06:11:45;34.72;;;19.65;;
76667;SDS011;65585;51.166;16.922;2023-10-19T06:14:10;37.17;;;19.75;;
76667;SDS011;65585;51.166;16.922;2023-10-19T06:16:37;32.53;;;18.95;;
76667;SDS011;65585;51.166;16.922;2023-10-19T06:19:03;31.88;;;20.08;;
76667;SDS011;65585;51.166;16.922;2023-10-19T06:21:29;37.25;;;19.27;;
76667;SDS011;65585;51.166;16.922;2023-10-19T06:23:58;33.38;;;19.00;;
76667;SDS011;65585;51.166;16.922;2023-10-19T06:26:25;33.67;;;19.35;;
76667;SDS011;65585;51.166;16.922;2023-10-19T06:28:50;36.53;;;19.80;;
76667;SDS011;65585;51.166;16.922;2023-10-19T06:31:22;33.55;;;18.30;;
76667;SDS011;65585;51.166;16.922;2023-10-19T06:33:49;35.58;;;20.25;;
76667;SDS011;65585;51.166;16.922;2023-10-19T06:36:15;41.05;;;20.00;;
76667;SDS011;65585;51.166;16.922;2023-10-19T06:38:41;34.80;;;20.80;;
76667;SDS011;65585;51.166;16.922;2023-10-19T06:41:12;38.30;;;19.55;;
76667;SDS011;65585;51.166;16.922;2023-10-19T06:43:39;35.30;;;20.38;;
76667;SDS011;65585;51.166;16.922;2023-10-19T06:46:06;34.60;;;19.90;;
76667;SDS011;65585;51.166;16.922;2023-10-19T06:48:32;34.30;;;19.33;;
76667;SDS011;65585;51.166;16.922;2023-10-19T06:50:58;34.13;;;19.83;;
76667;SDS011;65585;51.166;16.922;2023-10-19T06:53:25;34.28;;;19.10;;
76667;SDS011;65585;51.166;16.922;2023-10-19T06:55:52;31.05;;;18.30;;
76667;SDS011;65585;51.166;16.922;2023-10-19T06:58:18;31.95;;;18.83;;
76667;SDS011;65585;51.166;16.922;2023-10-19T07:00:47;35.67;;;19.90;;
76667;SDS011;65585;51.166;16.922;2023-10-19T07:03:21;32.45;;;19.58;;
76667;SDS011;65585;51.166;16.922;2023-10-19T07:05:48;30.42;;;17.08;;
76667;SDS011;65585;51.166;16.922;2023-10-19T07:08:15;32.38;;;18.02;;
76667;SDS011;65585;51.166;16.922;2023-10-19T07:10:41;32.55;;;18.40;;
76667;SDS011;65585;51.166;16.922;2023-10-19T07:13:08;33.70;;;18.17;;
76667;SDS011;65585;51.166;16.922;2023-10-19T07:15:34;28.55;;;18.40;;
76667;SDS011;65585;51.166;16.922;2023-10-19T07:18:00;36.72;;;19.90;;
76667;SDS011;65585;51.166;16.922;2023-10-19T07:20:26;34.35;;;20.77;;
76667;SDS011;65585;51.166;16.922;2023-10-19T07:22:58;32.03;;;17.88;;
76667;SDS011;65585;51.166;16.922;2023-10-19T07:25:44;36.58;;;19.70;;
76667;SDS011;65585;51.166;16.922;2023-10-19T07:28:14;30.75;;;18.45;;
76667;SDS011;65585;51.166;16.922;2023-10-19T07:30:42;32.63;;;19.10;;
76667;SDS011;65585;51.166;16.922;2023-10-19T07:33:08;31.23;;;19.13;;
76667;SDS011;65585;51.166;16.922;2023-10-19T07:35:36;37.45;;;19.65;;
76667;SDS011;65585;51.166;16.922;2023-10-19T07:38:05;30.50;;;19.05;;
76667;SDS011;65585;51.166;16.922;2023-10-19T07:40:33;29.95;;;17.35;;
76667;SDS011;65585;51.166;16.922;2023-10-19T07:43:00;33.85;;;19.88;;
76667;SDS011;65585;51.166;16.922;2023-10-19T07:45:26;34.58;;;18.45;;
76667;SDS011;65585;51.166;16.922;2023-10-19T07:47:52;35.72;;;19.30;;
76667;SDS011;65585;51.166;16.922;2023-10-19T07:50:19;36.25;;;20.20;;
76667;SDS011;65585;51.166;16.922;2023-10-19T07:52:45;34.72;;;19.35;;
76667;SDS011;65585;51.166;16.922;2023-10-19T07:55:14;33.13;;;18.95;;
76667;SDS011;65585;51.166;16.922;2023-10-19T07:57:43;31.05;;;20.08;;
76667;SDS011;65585;51.166;16.922;2023-10-19T08:00:10;29.95;;;18.40;;
76667;SDS011;65585;51.166;16.922;2023-10-19T08:02:39;31.80;;;19.42;;
76667;SDS011;65585;51.166;16.922;2023-10-19T08:05:10;30.80;;;17.83;;
76667;SDS011;65585;51.166;16.922;2023-10-19T08:07:39;31.92;;;17.95;;
76667;SDS011;65585;51.166;16.922;2023-10-19T08:10:08;32.10;;;18.08;;
76667;SDS011;65585;51.166;16.922;2023-10-19T08:15:03;32.38;;;17.52;;
76667;SDS011;65585;51.166;16.922;2023-10-19T08:17:30;33.60;;;19.67;;
76667;SDS011;65585;51.166;16.922;2023-10-19T08:19:56;31.30;;;18.77;;
76667;SDS011;65585;51.166;16.922;2023-10-19T08:22:22;34.65;;;18.48;;
76667;SDS011;65585;51.166;16.922;2023-10-19T08:24:49;34.33;;;19.20;;
76667;SDS011;65585;51.166;16.922;2023-10-19T08:27:18;32.60;;;19.13;;
76667;SDS011;65585;51.166;16.922;2023-10-19T08:29:44;34.00;;;19.45;;
76667;SDS011;65585;51.166;16.922;2023-10-19T08:32:12;30.67;;;18.52;;
76667;SDS011;65585;51.166;16.922;2023-10-19T08:34:39;30.08;;;18.95;;
76667;SDS011;65585;51.166;16.922;2023-10-19T08:37:06;36.88;;;18.75;;
76667;SDS011;65585;51.166;16.922;2023-10-19T08:39:32;33.17;;;19.10;;
76667;SDS011;65585;51.166;16.922;2023-10-19T08:42:02;31.02;;;19.83;;
76667;SDS011;65585;51.166;16.922;2023-10-19T08:46:56;26.67;;;16.02;;
76667;SDS011;65585;51.166;16.922;2023-10-19T08:49:23;30.33;;;18.65;;
76667;SDS011;65585;51.166;16.922;2023-10-19T08:51:49;36.72;;;19.90;;
76667;SDS011;65585;51.166;16.922;2023-10-19T08:56:43;31.13;;;18.10;;
76667;SDS011;65585;51.166;16.922;2023-10-19T08:59:10;29.92;;;18.73;;
76667;SDS011;65585;51.166;16.922;2023-10-19T09:01:37;29.45;;;17.95;;
76667;SDS011;65585;51.166;16.922;2023-10-19T09:04:03;29.95;;;18.45;;
76667;SDS011;65585;51.166;16.922;2023-10-19T09:06:33;32.33;;;18.60;;
76667;SDS011;65585;51.166;16.922;2023-10-19T09:09:07;31.65;;;19.00;;
76667;SDS011;65585;51.166;16.922;2023-10-19T09:16:29;40.50;;;27.35;;
76667;SDS011;65585;51.166;16.922;2023-10-19T09:18:56;35.05;;;25.83;;
76667;SDS011;65585;51.166;16.922;2023-10-19T09:21:22;31.08;;;20.63;;
76667;SDS011;65585;51.166;16.922;2023-10-19T09:23:52;60.33;;;45.58;;
76667;SDS011;65585;51.166;16.922;2023-10-19T09:26:18;37.00;;;25.58;;
76667;SDS011;65585;51.166;16.922;2023-10-19T09:28:49;35.75;;;22.42;;
76667;SDS011;65585;51.166;16.922;2023-10-19T09:31:16;57.92;;;43.97;;
76667;SDS011;65585;51.166;16.922;2023-10-19T09:33:44;50.13;;;34.63;;
76667;SDS011;65585;51.166;16.922;2023-10-19T09:36:12;75.22;;;48.28;;
76667;SDS011;65585;51.166;16.922;2023-10-19T09:38:46;73.10;;;47.15;;
76667;SDS011;65585;51.166;16.922;2023-10-19T09:41:18;44.30;;;27.55;;
76667;SDS011;65585;51.166;16.922;2023-10-19T09:43:46;38.60;;;23.10;;
76667;SDS011;65585;51.166;16.922;2023-10-19T09:48:53;40.88;;;25.73;;
76667;SDS011;65585;51.166;16.922;2023-10-19T09:51:19;41.63;;;26.48;;
76667;SDS011;65585;51.166;16.922;2023-10-19T09:53:48;36.90;;;22.65;;
76667;SDS011;65585;51.166;16.922;2023-10-19T09:56:20;39.47;;;25.45;;
76667;SDS011;65585;51.166;16.922;2023-10-19T09:58:51;35.92;;;22.92;;
76667;SDS011;65585;51.166;16.922;2023-10-19T10:01:18;39.28;;;25.75;;
76667;SDS011;65585;51.166;16.922;2023-10-19T10:03:48;40.63;;;23.75;;
76667;SDS011;65585;51.166;16.922;2023-10-19T10:06:17;43.15;;;23.75;;
76667;SDS011;65585;51.166;16.922;2023-10-19T10:08:52;39.78;;;25.98;;
76667;SDS011;65585;51.166;16.922;2023-10-19T10:11:23;37.13;;;22.73;;
76667;SDS011;65585;51.166;16.922;2023-10-19T10:13:50;33.10;;;20.60;;
76667;SDS011;65585;51.166;16.922;2023-10-19T10:16:21;36.15;;;23.40;;
76667;SDS011;65585;51.166;16.922;2023-10-19T10:18:51;31.88;;;21.63;;
76667;SDS011;65585;51.166;16.922;2023-10-19T10:21:21;34.95;;;21.10;;
76667;SDS011;65585;51.166;16.922;2023-10-19T10:23:56;41.60;;;23.65;;
76667;SDS011;65585;51.166;16.922;2023-10-19T10:26:24;43.70;;;24.83;;
76667;SDS011;65585;51.166;16.922;2023-10-19T10:31:48;40.55;;;24.58;;
76667;SDS011;65585;51.166;16.922;2023-10-19T10:37:10;38.85;;;26.15;;
76667;SDS011;65585;51.166;16.922;2023-10-19T10:39:39;40.15;;;27.85;;
76667;SDS011;65585;51.166;16.922;2023-10-19T10:42:10;47.20;;;31.25;;
76667;SDS011;65585;51.166;16.922;2023-10-19T10:44:38;34.30;;;21.67;;
76667;SDS011;65585;51.166;16.922;2023-10-19T10:47:20;35.65;;;21.42;;
76667;SDS011;65585;51.166;16.922;2023-10-19T10:52:23;35.25;;;21.30;;
76667;SDS011;65585;51.166;16.922;2023-10-19T10:54:50;35.40;;;21.63;;
76667;SDS011;65585;51.166;16.922;2023-10-19T10:57:16;36.25;;;23.40;;
76667;SDS011;65585;51.166;16.922;2023-10-19T10:59:42;40.17;;;22.55;;
76667;SDS011;65585;51.166;16.922;2023-10-19T11:02:18;38.17;;;24.05;;
76667;SDS011;65585;51.166;16.922;2023-10-19T11:04:45;39.72;;;21.77;;
76667;SDS011;65585;51.166;16.922;2023-10-19T11:07:18;43.97;;;24.27;;
76667;SDS011;65585;51.166;16.922;2023-10-19T11:09:45;36.80;;;22.23;;
76667;SDS011;65585;51.166;16.922;2023-10-19T11:12:12;37.88;;;22.55;;
76667;SDS011;65585;51.166;16.922;2023-10-19T11:14:55;38.47;;;23.20;;
76667;SDS011;65585;51.166;16.922;2023-10-19T11:17:26;37.25;;;21.80;;
76667;SDS011;65585;51.166;16.922;2023-10-19T11:19:56;38.30;;;22.52;;
76667;SDS011;65585;51.166;16.922;2023-10-19T11:22:23;41.05;;;23.73;;
76667;SDS011;65585;51.166;16.922;2023-10-19T11:24:53;38.17;;;22.63;;
76667;SDS011;65585;51.166;16.922;2023-10-19T11:27:26;37.03;;;22.30;;
76667;SDS011;65585;51.166;16.922;2023-10-19T11:29:53;38.40;;;24.20;;
76667;SDS011;65585;51.166;16.922;2023-10-19T11:32:23;39.72;;;24.05;;
76667;SDS011;65585;51.166;16.922;2023-10-19T11:34:56;40.95;;;24.35;;
76667;SDS011;65585;51.166;16.922;2023-10-19T11:37:22;39.67;;;23.63;;
76667;SDS011;65585;51.166;16.922;2023-10-19T11:39:48;41.17;;;23.80;;
76667;SDS011;65585;51.166;16.922;2023-10-19T11:42:15;40.97;;;23.17;;
76667;SDS011;65585;51.166;16.922;2023-10-19T11:44:45;41.38;;;23.90;;
76667;SDS011;65585;51.166;16.922;2023-10-19T11:47:11;40.53;;;24.08;;
76667;SDS011;65585;51.166;16.922;2023-10-19T11:49:39;42.78;;;25.27;;
76667;SDS011;65585;51.166;16.922;2023-10-19T11:52:05;37.55;;;22.80;;
76667;SDS011;65585;51.166;16.922;2023-10-19T11:54:33;36.40;;;23.40;;
76667;SDS011;65585;51.166;16.922;2023-10-19T11:56:59;38.60;;;22.35;;
76667;SDS011;65585;51.166;16.922;2023-10-19T11:59:25;41.05;;;23.65;;
76667;SDS011;65585;51.166;16.922;2023-10-19T12:01:52;40.13;;;23.15;;
76667;SDS011;65585;51.166;16.922;2023-10-19T12:04:18;43.47;;;23.50;;
76667;SDS011;65585;51.166;16.922;2023-10-19T12:06:44;40.38;;;23.45;;
76667;SDS011;65585;51.166;16.922;2023-10-19T12:09:13;45.67;;;24.52;;
76667;SDS011;65585;51.166;16.922;2023-10-19T12:11:42;39.47;;;23.45;;
76667;SDS011;65585;51.166;16.922;2023-10-19T12:14:08;38.95;;;24.55;;
76667;SDS011;65585;51.166;16.922;2023-10-19T12:16:37;38.20;;;23.58;;
76667;SDS011;65585;51.166;16.922;2023-10-19T12:21:31;38.53;;;21.83;;
76667;SDS011;65585;51.166;16.922;2023-10-19T12:23:57;38.90;;;23.05;;
76667;SDS011;65585;51.166;16.922;2023-10-19T12:28:51;36.67;;;22.92;;
76667;SDS011;65585;51.166;16.922;2023-10-19T12:31:17;43.20;;;23.00;;
76667;SDS011;65585;51.166;16.922;2023-10-19T12:33:47;34.83;;;21.30;;
76667;SDS011;65585;51.166;16.922;2023-10-19T12:36:13;35.42;;;21.90;;
76667;SDS011;65585;51.166;16.922;2023-10-19T12:38:48;36.40;;;21.98;;
76667;SDS011;65585;51.166;16.922;2023-10-19T12:41:15;39.83;;;22.13;;
76667;SDS011;65585;51.166;16.922;2023-10-19T12:43:41;89.82;;;50.00;;
76667;SDS011;65585;51.166;16.922;2023-10-19T12:46:07;46.17;;;28.30;;
76667;SDS011;65585;51.166;16.922;2023-10-19T12:48:34;42.85;;;27.55;;
76667;SDS011;65585;51.166;16.922;2023-10-19T12:51:01;39.03;;;21.85;;
76667;SDS011;65585;51.166;16.922;2023-10-19T12:53:27;40.05;;;24.50;;
76667;SDS011;65585;51.166;16.922;2023-10-19T12:55:53;35.33;;;22.27;;
76667;SDS011;65585;51.166;16.922;2023-10-19T12:58:19;47.13;;;32.47;;
76667;SDS011;65585;51.166;16.922;2023-10-19T13:00:46;41.40;;;28.63;;
76667;SDS011;65585;51.166;16.922;2023-10-19T13:03:15;39.13;;;23.20;;
76667;SDS011;65585;51.166;16.922;2023-10-19T13:05:42;40.47;;;25.40;;
76667;SDS011;65585;51.166;16.922;2023-10-19T13:08:13;36.55;;;20.90;;
76667;SDS011;65585;51.166;16.922;2023-10-19T13:10:43;35.53;;;21.98;;
76667;SDS011;65585;51.166;16.922;2023-10-19T13:13:11;34.33;;;22.23;;
76667;SDS011;65585;51.166;16.922;2023-10-19T13:15:42;35.60;;;21.15;;
76667;SDS011;65585;51.166;16.922;2023-10-19T13:18:10;37.90;;;22.95;;
76667;SDS011;65585;51.166;16.922;2023-10-19T13:20:38;40.10;;;22.60;;
76667;SDS011;65585;51.166;16.922;2023-10-19T13:23:09;42.17;;;24.90;;
76667;SDS011;65585;51.166;16.922;2023-10-19T13:25:41;42.95;;;22.65;;
76667;SDS011;65585;51.166;16.922;2023-10-19T13:28:12;38.45;;;22.88;;
76667;SDS011;65585;51.166;16.922;2023-10-19T13:30:39;40.15;;;22.83;;
76667;SDS011;65585;51.166;16.922;2023-10-19T13:33:06;36.60;;;21.48;;
76667;SDS011;65585;51.166;16.922;2023-10-19T13:35:38;42.25;;;23.17;;
76667;SDS011;65585;51.166;16.922;2023-10-19T13:38:05;38.75;;;20.92;;
76667;SDS011;65585;51.166;16.922;2023-10-19T13:40:36;41.72;;;22.98;;
76667;SDS011;65585;51.166;16.922;2023-10-19T13:43:04;35.20;;;23.13;;
76667;SDS011;65585;51.166;16.922;2023-10-19T13:45:35;38.08;;;21.25;;
76667;SDS011;65585;51.166;16.922;2023-10-19T13:48:07;37.38;;;22.75;;
76667;SDS011;65585;51.166;16.922;2023-10-19T13:50:35;36.55;;;21.52;;
76667;SDS011;65585;51.166;16.922;2023-10-19T13:53:02;35.83;;;21.65;;
76667;SDS011;65585;51.166;16.922;2023-10-19T13:57:56;33.30;;;19.70;;
76667;SDS011;65585;51.166;16.922;2023-10-19T14:00:23;43.33;;;22.58;;
76667;SDS011;65585;51.166;16.922;2023-10-19T14:03:05;34.97;;;20.48;;
76667;SDS011;65585;51.166;16.922;2023-10-19T14:05:37;36.30;;;20.50;;
76667;SDS011;65585;51.166;16.922;2023-10-19T14:08:05;34.80;;;21.27;;
76667;SDS011;65585;51.166;16.922;2023-10-19T14:10:32;34.75;;;21.42;;
76667;SDS011;65585;51.166;16.922;2023-10-19T14:12:59;36.55;;;20.92;;
76667;SDS011;65585;51.166;16.922;2023-10-19T14:15:26;39.85;;;22.98;;
76667;SDS011;65585;51.166;16.922;2023-10-19T14:17:55;36.67;;;21.50;;
76667;SDS011;65585;51.166;16.922;2023-10-19T14:20:23;37.58;;;21.83;;
76667;SDS011;65585;51.166;16.922;2023-10-19T14:22:50;38.05;;;21.10;;
76667;SDS011;65585;51.166;16.922;2023-10-19T14:25:16;36.42;;;21.13;;
76667;SDS011;65585;51.166;16.922;2023-10-19T14:27:46;40.08;;;22.90;;
76667;SDS011;65585;51.166;16.922;2023-10-19T14:30:13;45.65;;;23.20;;
76667;SDS011;65585;51.166;16.922;2023-10-19T14:35:12;37.97;;;20.20;;
76667;SDS011;65585;51.166;16.922;2023-10-19T14:37:41;37.03;;;22.58;;
76667;SDS011;65585;51.166;16.922;2023-10-19T14:40:08;39.97;;;21.17;;
76667;SDS011;65585;51.166;16.922;2023-10-19T14:42:40;43.15;;;22.90;;
76667;SDS011;65585;51.166;16.922;2023-10-19T14:45:11;43.40;;;23.35;;
76667;SDS011;65585;51.166;16.922;2023-10-19T14:47:42;39.03;;;22.67;;
76667;SDS011;65585;51.166;16.922;2023-10-19T14:50:14;38.88;;;21.92;;
76667;SDS011;65585;51.166;16.922;2023-10-19T14:52:41;35.90;;;20.80;;
76667;SDS011;65585;51.166;16.922;2023-10-19T14:55:10;34.90;;;21.20;;
76667;SDS011;65585;51.166;16.922;2023-10-19T14:57:37;39.88;;;21.90;;
76667;SDS011;65585;51.166;16.922;2023-10-19T15:00:06;43.70;;;22.70;;